sensor_id;sensor_type;location;lat;lon;timestamp;P1;durP1;ratioP1;P2;durP2;ratioP2
39860;SDS011;25529;49.346;20.886;2023-07-13T00:02:15;24.48;;;12.93;;
39860;SDS011;25529;49.346;20.886;2023-07-13T00:04:42;25.67;;;13.18;;
39860;SDS011;25529;49.346;20.886;2023-07-13T00:07:08;27.35;;;14.07;;
39860;SDS011;25529;49.346;20.886;2023-07-13T00:09:34;26.33;;;13.90;;
39860;SDS011;25529;49.346;20.886;2023-07-13T00:11:59;26.05;;;14.07;;
39860;SDS011;25529;49.346;20.886;2023-07-13T00:14:26;25.73;;;13.63;;
39860;SDS011;25529;49.346;20.886;2023-07-13T00:16:52;25.15;;;13.48;;
39860;SDS011;25529;49.346;20.886;2023-07-13T00:19:19;28.30;;;13.77;;
39860;SDS011;25529;49.346;20.886;2023-07-13T00:21:48;24.17;;;12.80;;
39860;SDS011;25529;49.346;20.886;2023-07-13T00:24:15;25.20;;;13.25;;
39860;SDS011;25529;49.346;20.886;2023-07-13T00:26:43;26.27;;;14.02;;
39860;SDS011;25529;49.346;20.886;2023-07-13T00:29:13;24.05;;;12.60;;
39860;SDS011;25529;49.346;20.886;2023-07-13T00:31:40;24.50;;;13.13;;
39860;SDS011;25529;49.346;20.886;2023-07-13T00:34:07;26.70;;;13.73;;
39860;SDS011;25529;49.346;20.886;2023-07-13T00:36:32;23.27;;;12.18;;
39860;SDS011;25529;49.346;20.886;2023-07-13T00:38:58;24.67;;;11.90;;
39860;SDS011;25529;49.346;20.886;2023-07-13T00:41:24;25.77;;;12.40;;
39860;SDS011;25529;49.346;20.886;2023-07-13T00:43:50;24.85;;;12.85;;
39860;SDS011;25529;49.346;20.886;2023-07-13T00:46:19;24.52;;;12.23;;
39860;SDS011;25529;49.346;20.886;2023-07-13T00:48:47;24.27;;;12.57;;
39860;SDS011;25529;49.346;20.886;2023-07-13T00:51:17;24.70;;;13.02;;
39860;SDS011;25529;49.346;20.886;2023-07-13T00:53:44;25.95;;;13.20;;
39860;SDS011;25529;49.346;20.886;2023-07-13T00:56:10;25.42;;;12.40;;
39860;SDS011;25529;49.346;20.886;2023-07-13T00:58:37;23.58;;;12.65;;
39860;SDS011;25529;49.346;20.886;2023-07-13T01:01:04;27.58;;;13.05;;
39860;SDS011;25529;49.346;20.886;2023-07-13T01:03:31;24.08;;;12.50;;
39860;SDS011;25529;49.346;20.886;2023-07-13T01:06:00;23.92;;;12.52;;
39860;SDS011;25529;49.346;20.886;2023-07-13T01:08:25;24.10;;;12.07;;
39860;SDS011;25529;49.346;20.886;2023-07-13T01:10:52;27.38;;;12.65;;
39860;SDS011;25529;49.346;20.886;2023-07-13T01:13:20;23.58;;;12.45;;
39860;SDS011;25529;49.346;20.886;2023-07-13T01:15:47;25.08;;;12.70;;
39860;SDS011;25529;49.346;20.886;2023-07-13T01:18:18;25.73;;;13.35;;
39860;SDS011;25529;49.346;20.886;2023-07-13T01:20:50;26.38;;;13.88;;
39860;SDS011;25529;49.346;20.886;2023-07-13T01:25:43;25.20;;;12.20;;
39860;SDS011;25529;49.346;20.886;2023-07-13T01:28:10;27.73;;;13.25;;
39860;SDS011;25529;49.346;20.886;2023-07-13T01:30:37;25.38;;;12.90;;
39860;SDS011;25529;49.346;20.886;2023-07-13T01:33:05;24.42;;;12.32;;
39860;SDS011;25529;49.346;20.886;2023-07-13T01:35:33;24.25;;;12.65;;
39860;SDS011;25529;49.346;20.886;2023-07-13T01:37:59;26.40;;;12.90;;
39860;SDS011;25529;49.346;20.886;2023-07-13T01:40:28;24.92;;;12.10;;
39860;SDS011;25529;49.346;20.886;2023-07-13T01:42:56;26.52;;;13.23;;
39860;SDS011;25529;49.346;20.886;2023-07-13T01:45:23;25.55;;;12.50;;
39860;SDS011;25529;49.346;20.886;2023-07-13T01:47:48;27.58;;;14.30;;
39860;SDS011;25529;49.346;20.886;2023-07-13T01:50:14;26.13;;;13.45;;
39860;SDS011;25529;49.346;20.886;2023-07-13T01:52:39;26.75;;;13.60;;
39860;SDS011;25529;49.346;20.886;2023-07-13T01:55:06;26.90;;;14.75;;
39860;SDS011;25529;49.346;20.886;2023-07-13T01:57:34;26.00;;;14.05;;
39860;SDS011;25529;49.346;20.886;2023-07-13T02:00:02;27.38;;;14.00;;
39860;SDS011;25529;49.346;20.886;2023-07-13T02:02:30;26.58;;;13.70;;
39860;SDS011;25529;49.346;20.886;2023-07-13T02:04:55;26.73;;;13.98;;
39860;SDS011;25529;49.346;20.886;2023-07-13T02:07:22;26.67;;;13.85;;
39860;SDS011;25529;49.346;20.886;2023-07-13T02:09:52;26.75;;;13.05;;
39860;SDS011;25529;49.346;20.886;2023-07-13T02:12:17;25.15;;;13.57;;
39860;SDS011;25529;49.346;20.886;2023-07-13T02:14:43;28.00;;;14.57;;
39860;SDS011;25529;49.346;20.886;2023-07-13T02:17:09;26.83;;;13.82;;
39860;SDS011;25529;49.346;20.886;2023-07-13T02:19:35;27.70;;;13.68;;
39860;SDS011;25529;49.346;20.886;2023-07-13T02:22:02;24.65;;;13.68;;
39860;SDS011;25529;49.346;20.886;2023-07-13T02:24:30;25.90;;;13.45;;
39860;SDS011;25529;49.346;20.886;2023-07-13T02:26:57;27.40;;;13.80;;
39860;SDS011;25529;49.346;20.886;2023-07-13T02:29:23;28.42;;;14.88;;
39860;SDS011;25529;49.346;20.886;2023-07-13T02:31:49;26.55;;;14.00;;
39860;SDS011;25529;49.346;20.886;2023-07-13T02:34:14;25.58;;;13.98;;
39860;SDS011;25529;49.346;20.886;2023-07-13T02:36:41;26.65;;;13.77;;
39860;SDS011;25529;49.346;20.886;2023-07-13T02:39:08;27.20;;;14.57;;
39860;SDS011;25529;49.346;20.886;2023-07-13T02:41:35;28.35;;;14.43;;
39860;SDS011;25529;49.346;20.886;2023-07-13T02:44:01;26.23;;;13.90;;
39860;SDS011;25529;49.346;20.886;2023-07-13T02:46:31;30.27;;;14.00;;
39860;SDS011;25529;49.346;20.886;2023-07-13T02:48:57;28.33;;;14.80;;
39860;SDS011;25529;49.346;20.886;2023-07-13T02:51:24;27.00;;;14.30;;
39860;SDS011;25529;49.346;20.886;2023-07-13T02:53:51;26.80;;;13.50;;
39860;SDS011;25529;49.346;20.886;2023-07-13T02:56:17;28.48;;;14.80;;
39860;SDS011;25529;49.346;20.886;2023-07-13T02:58:46;27.95;;;14.55;;
39860;SDS011;25529;49.346;20.886;2023-07-13T03:01:11;29.10;;;14.55;;
39860;SDS011;25529;49.346;20.886;2023-07-13T03:03:37;26.70;;;14.90;;
39860;SDS011;25529;49.346;20.886;2023-07-13T03:06:05;28.60;;;15.18;;
39860;SDS011;25529;49.346;20.886;2023-07-13T03:08:32;28.95;;;15.20;;
39860;SDS011;25529;49.346;20.886;2023-07-13T03:11:02;28.70;;;15.85;;
39860;SDS011;25529;49.346;20.886;2023-07-13T03:13:28;33.58;;;17.10;;
39860;SDS011;25529;49.346;20.886;2023-07-13T03:15:53;30.02;;;16.00;;
39860;SDS011;25529;49.346;20.886;2023-07-13T03:18:19;29.55;;;16.92;;
39860;SDS011;25529;49.346;20.886;2023-07-13T03:20:44;32.67;;;15.45;;
39860;SDS011;25529;49.346;20.886;2023-07-13T03:23:09;29.40;;;16.45;;
39860;SDS011;25529;49.346;20.886;2023-07-13T03:25:34;27.52;;;15.40;;
39860;SDS011;25529;49.346;20.886;2023-07-13T03:28:00;27.77;;;15.45;;
39860;SDS011;25529;49.346;20.886;2023-07-13T03:30:25;27.77;;;14.77;;
39860;SDS011;25529;49.346;20.886;2023-07-13T03:35:49;30.75;;;14.40;;
39860;SDS011;25529;49.346;20.886;2023-07-13T03:38:17;34.15;;;15.88;;
39860;SDS011;25529;49.346;20.886;2023-07-13T03:53:39;43.78;;;26.02;;
39860;SDS011;25529;49.346;20.886;2023-07-13T03:56:08;38.38;;;21.92;;
39860;SDS011;25529;49.346;20.886;2023-07-13T04:01:40;31.60;;;18.05;;
39860;SDS011;25529;49.346;20.886;2023-07-13T04:04:09;30.83;;;16.00;;
39860;SDS011;25529;49.346;20.886;2023-07-13T04:06:45;26.92;;;15.32;;
39860;SDS011;25529;49.346;20.886;2023-07-13T04:09:18;25.73;;;14.30;;
39860;SDS011;25529;49.346;20.886;2023-07-13T04:11:49;25.88;;;14.60;;
39860;SDS011;25529;49.346;20.886;2023-07-13T04:14:15;26.13;;;13.27;;
39860;SDS011;25529;49.346;20.886;2023-07-13T04:16:46;25.88;;;13.10;;
39860;SDS011;25529;49.346;20.886;2023-07-13T04:19:13;25.70;;;12.57;;
39860;SDS011;25529;49.346;20.886;2023-07-13T04:21:39;25.08;;;13.18;;
39860;SDS011;25529;49.346;20.886;2023-07-13T04:24:15;25.42;;;12.93;;
39860;SDS011;25529;49.346;20.886;2023-07-13T04:26:40;26.23;;;12.23;;
39860;SDS011;25529;49.346;20.886;2023-07-13T04:29:06;24.95;;;12.60;;
39860;SDS011;25529;49.346;20.886;2023-07-13T04:31:32;23.80;;;12.35;;
39860;SDS011;25529;49.346;20.886;2023-07-13T04:33:58;22.92;;;11.73;;
39860;SDS011;25529;49.346;20.886;2023-07-13T04:36:25;23.70;;;11.00;;
39860;SDS011;25529;49.346;20.886;2023-07-13T04:38:54;24.02;;;12.10;;
39860;SDS011;25529;49.346;20.886;2023-07-13T04:47:26;23.45;;;10.27;;
39860;SDS011;25529;49.346;20.886;2023-07-13T04:49:51;24.52;;;11.43;;
39860;SDS011;25529;49.346;20.886;2023-07-13T04:52:20;22.33;;;11.13;;
39860;SDS011;25529;49.346;20.886;2023-07-13T05:07:04;25.33;;;12.65;;
39860;SDS011;25529;49.346;20.886;2023-07-13T05:09:29;24.90;;;11.90;;
39860;SDS011;25529;49.346;20.886;2023-07-13T05:11:54;26.83;;;12.40;;
39860;SDS011;25529;49.346;20.886;2023-07-13T05:14:20;25.27;;;13.20;;
39860;SDS011;25529;49.346;20.886;2023-07-13T05:16:45;23.75;;;11.95;;
39860;SDS011;25529;49.346;20.886;2023-07-13T05:19:13;21.92;;;11.02;;
39860;SDS011;25529;49.346;20.886;2023-07-13T05:21:38;23.33;;;11.50;;
39860;SDS011;25529;49.346;20.886;2023-07-13T05:24:04;30.35;;;16.48;;
39860;SDS011;25529;49.346;20.886;2023-07-13T05:26:29;28.73;;;15.70;;
39860;SDS011;25529;49.346;20.886;2023-07-13T05:28:54;28.80;;;15.68;;
39860;SDS011;25529;49.346;20.886;2023-07-13T05:31:20;28.13;;;15.98;;
39860;SDS011;25529;49.346;20.886;2023-07-13T05:33:45;25.73;;;14.68;;
39860;SDS011;25529;49.346;20.886;2023-07-13T05:39:02;24.88;;;13.68;;
39860;SDS011;25529;49.346;20.886;2023-07-13T05:41:27;25.25;;;13.60;;
39860;SDS011;25529;49.346;20.886;2023-07-13T05:43:52;24.02;;;12.70;;
39860;SDS011;25529;49.346;20.886;2023-07-13T05:46:18;26.02;;;13.35;;
39860;SDS011;25529;49.346;20.886;2023-07-13T05:48:43;24.20;;;12.30;;
39860;SDS011;25529;49.346;20.886;2023-07-13T05:51:08;24.80;;;12.32;;
39860;SDS011;25529;49.346;20.886;2023-07-13T05:53:34;25.48;;;12.55;;
39860;SDS011;25529;49.346;20.886;2023-07-13T05:56:00;24.23;;;12.48;;
39860;SDS011;25529;49.346;20.886;2023-07-13T05:58:25;24.52;;;12.88;;
39860;SDS011;25529;49.346;20.886;2023-07-13T06:00:57;26.95;;;13.32;;
39860;SDS011;25529;49.346;20.886;2023-07-13T06:03:23;25.73;;;13.18;;
39860;SDS011;25529;49.346;20.886;2023-07-13T06:05:48;27.77;;;13.13;;
39860;SDS011;25529;49.346;20.886;2023-07-13T06:08:14;26.65;;;13.57;;
39860;SDS011;25529;49.346;20.886;2023-07-13T06:10:39;24.77;;;13.15;;
39860;SDS011;25529;49.346;20.886;2023-07-13T06:13:04;25.70;;;13.00;;
39860;SDS011;25529;49.346;20.886;2023-07-13T06:15:29;24.40;;;12.70;;
39860;SDS011;25529;49.346;20.886;2023-07-13T06:17:55;24.17;;;12.45;;
39860;SDS011;25529;49.346;20.886;2023-07-13T06:22:48;23.35;;;11.80;;
39860;SDS011;25529;49.346;20.886;2023-07-13T06:25:13;23.70;;;12.68;;
39860;SDS011;25529;49.346;20.886;2023-07-13T06:27:38;23.25;;;12.27;;
39860;SDS011;25529;49.346;20.886;2023-07-13T06:30:04;22.40;;;11.25;;
39860;SDS011;25529;49.346;20.886;2023-07-13T06:32:29;22.00;;;11.48;;
39860;SDS011;25529;49.346;20.886;2023-07-13T06:34:55;22.55;;;11.98;;
39860;SDS011;25529;49.346;20.886;2023-07-13T06:37:23;22.88;;;11.75;;
39860;SDS011;25529;49.346;20.886;2023-07-13T06:39:51;22.65;;;11.80;;
39860;SDS011;25529;49.346;20.886;2023-07-13T06:42:18;23.50;;;11.93;;
39860;SDS011;25529;49.346;20.886;2023-07-13T06:45:04;22.85;;;12.15;;
39860;SDS011;25529;49.346;20.886;2023-07-13T06:47:31;23.17;;;11.43;;
39860;SDS011;25529;49.346;20.886;2023-07-13T06:50:11;23.92;;;11.90;;
39860;SDS011;25529;49.346;20.886;2023-07-13T06:52:40;24.40;;;12.40;;
39860;SDS011;25529;49.346;20.886;2023-07-13T06:55:06;24.92;;;12.07;;
39860;SDS011;25529;49.346;20.886;2023-07-13T06:57:42;23.35;;;11.90;;
39860;SDS011;25529;49.346;20.886;2023-07-13T07:00:17;22.92;;;11.63;;
39860;SDS011;25529;49.346;20.886;2023-07-13T07:02:45;25.90;;;12.75;;
39860;SDS011;25529;49.346;20.886;2023-07-13T07:08:02;24.38;;;12.82;;
39860;SDS011;25529;49.346;20.886;2023-07-13T07:10:29;24.45;;;12.32;;
39860;SDS011;25529;49.346;20.886;2023-07-13T07:12:57;24.63;;;11.95;;
39860;SDS011;25529;49.346;20.886;2023-07-13T07:18:25;24.48;;;12.70;;
39860;SDS011;25529;49.346;20.886;2023-07-13T07:20:53;24.23;;;12.65;;
39860;SDS011;25529;49.346;20.886;2023-07-13T07:23:24;26.30;;;12.98;;
39860;SDS011;25529;49.346;20.886;2023-07-13T07:28:53;25.42;;;12.75;;
39860;SDS011;25529;49.346;20.886;2023-07-13T07:34:22;25.15;;;13.23;;
39860;SDS011;25529;49.346;20.886;2023-07-13T07:36:49;25.10;;;13.50;;
39860;SDS011;25529;49.346;20.886;2023-07-13T07:39:17;27.02;;;13.63;;
39860;SDS011;25529;49.346;20.886;2023-07-13T07:41:43;26.02;;;14.38;;
39860;SDS011;25529;49.346;20.886;2023-07-13T07:47:16;30.45;;;16.35;;
39860;SDS011;25529;49.346;20.886;2023-07-13T07:52:49;26.50;;;14.82;;
39860;SDS011;25529;49.346;20.886;2023-07-13T07:58:05;26.40;;;14.48;;
39860;SDS011;25529;49.346;20.886;2023-07-13T08:00:37;29.00;;;14.52;;
39860;SDS011;25529;49.346;20.886;2023-07-13T08:03:03;28.42;;;14.25;;
39860;SDS011;25529;49.346;20.886;2023-07-13T08:05:28;27.75;;;13.77;;
39860;SDS011;25529;49.346;20.886;2023-07-13T08:07:54;25.05;;;12.38;;
39860;SDS011;25529;49.346;20.886;2023-07-13T08:10:19;25.08;;;13.32;;
39860;SDS011;25529;49.346;20.886;2023-07-13T08:12:45;25.23;;;14.35;;
39860;SDS011;25529;49.346;20.886;2023-07-13T08:15:11;24.88;;;13.45;;
39860;SDS011;25529;49.346;20.886;2023-07-13T08:17:39;25.55;;;13.68;;
39860;SDS011;25529;49.346;20.886;2023-07-13T08:20:08;22.60;;;11.38;;
39860;SDS011;25529;49.346;20.886;2023-07-13T08:22:52;23.30;;;10.90;;
39860;SDS011;25529;49.346;20.886;2023-07-13T08:25:19;22.27;;;10.30;;
39860;SDS011;25529;49.346;20.886;2023-07-13T08:27:45;22.35;;;10.75;;
39860;SDS011;25529;49.346;20.886;2023-07-13T08:30:14;23.83;;;10.63;;
39860;SDS011;25529;49.346;20.886;2023-07-13T08:32:42;21.38;;;10.23;;
39860;SDS011;25529;49.346;20.886;2023-07-13T08:35:07;22.52;;;10.80;;
39860;SDS011;25529;49.346;20.886;2023-07-13T08:37:32;22.83;;;11.00;;
39860;SDS011;25529;49.346;20.886;2023-07-13T08:39:58;22.65;;;11.18;;
39860;SDS011;25529;49.346;20.886;2023-07-13T08:45:03;23.13;;;11.88;;
39860;SDS011;25529;49.346;20.886;2023-07-13T08:47:32;25.05;;;12.27;;
39860;SDS011;25529;49.346;20.886;2023-07-13T08:50:01;24.33;;;12.23;;
39860;SDS011;25529;49.346;20.886;2023-07-13T08:52:34;24.00;;;11.90;;
39860;SDS011;25529;49.346;20.886;2023-07-13T08:55:09;23.25;;;11.82;;
39860;SDS011;25529;49.346;20.886;2023-07-13T08:57:41;22.55;;;11.63;;
39860;SDS011;25529;49.346;20.886;2023-07-13T09:00:16;25.35;;;12.25;;
39860;SDS011;25529;49.346;20.886;2023-07-13T09:02:59;22.67;;;11.68;;
39860;SDS011;25529;49.346;20.886;2023-07-13T09:16:19;24.55;;;12.75;;
39860;SDS011;25529;49.346;20.886;2023-07-13T09:18:46;24.38;;;12.68;;
39860;SDS011;25529;49.346;20.886;2023-07-13T09:21:16;25.42;;;13.23;;
39860;SDS011;25529;49.346;20.886;2023-07-13T09:23:42;25.95;;;13.48;;
39860;SDS011;25529;49.346;20.886;2023-07-13T09:47:35;27.42;;;15.05;;
39860;SDS011;25529;49.346;20.886;2023-07-13T09:50:21;28.35;;;14.82;;
39860;SDS011;25529;49.346;20.886;2023-07-13T09:53:17;29.77;;;15.05;;
39860;SDS011;25529;49.346;20.886;2023-07-13T09:55:51;29.83;;;15.85;;
39860;SDS011;25529;49.346;20.886;2023-07-13T09:58:18;30.10;;;15.18;;
39860;SDS011;25529;49.346;20.886;2023-07-13T10:00:55;30.13;;;15.82;;
39860;SDS011;25529;49.346;20.886;2023-07-13T10:03:25;29.27;;;16.42;;
39860;SDS011;25529;49.346;20.886;2023-07-13T10:05:58;31.55;;;16.42;;
39860;SDS011;25529;49.346;20.886;2023-07-13T10:08:31;31.58;;;16.10;;
39860;SDS011;25529;49.346;20.886;2023-07-13T10:17:34;31.33;;;15.88;;
39860;SDS011;25529;49.346;20.886;2023-07-13T10:20:05;32.83;;;17.90;;
39860;SDS011;25529;49.346;20.886;2023-07-13T10:22:41;30.25;;;16.50;;
39860;SDS011;25529;49.346;20.886;2023-07-13T10:25:18;31.73;;;17.35;;
39860;SDS011;25529;49.346;20.886;2023-07-13T10:27:44;29.67;;;16.60;;
39860;SDS011;25529;49.346;20.886;2023-07-13T10:30:15;32.97;;;17.40;;
39860;SDS011;25529;49.346;20.886;2023-07-13T10:33:02;30.90;;;16.95;;
39860;SDS011;25529;49.346;20.886;2023-07-13T10:35:29;30.35;;;16.95;;
39860;SDS011;25529;49.346;20.886;2023-07-13T10:38:00;30.38;;;16.95;;
39860;SDS011;25529;49.346;20.886;2023-07-13T10:40:33;33.20;;;16.60;;
39860;SDS011;25529;49.346;20.886;2023-07-13T10:43:00;31.25;;;16.95;;
39860;SDS011;25529;49.346;20.886;2023-07-13T10:45:30;30.30;;;16.17;;
39860;SDS011;25529;49.346;20.886;2023-07-13T10:47:58;33.38;;;16.60;;
39860;SDS011;25529;49.346;20.886;2023-07-13T10:50:26;30.88;;;17.02;;
39860;SDS011;25529;49.346;20.886;2023-07-13T10:52:55;28.60;;;16.15;;
39860;SDS011;25529;49.346;20.886;2023-07-13T10:55:32;27.17;;;14.38;;
39860;SDS011;25529;49.346;20.886;2023-07-13T10:58:19;27.40;;;14.60;;
39860;SDS011;25529;49.346;20.886;2023-07-13T11:03:26;28.50;;;14.88;;
39860;SDS011;25529;49.346;20.886;2023-07-13T11:06:05;29.92;;;15.27;;
39860;SDS011;25529;49.346;20.886;2023-07-13T11:08:35;30.95;;;16.48;;
39860;SDS011;25529;49.346;20.886;2023-07-13T11:11:32;32.72;;;16.60;;
39860;SDS011;25529;49.346;20.886;2023-07-13T11:18:48;28.17;;;14.73;;
39860;SDS011;25529;49.346;20.886;2023-07-13T11:21:18;30.58;;;15.25;;
39860;SDS011;25529;49.346;20.886;2023-07-13T11:24:01;29.58;;;15.38;;
39860;SDS011;25529;49.346;20.886;2023-07-13T11:31:40;28.45;;;15.27;;
39860;SDS011;25529;49.346;20.886;2023-07-13T11:34:16;28.80;;;15.20;;
39860;SDS011;25529;49.346;20.886;2023-07-13T11:36:43;26.90;;;14.00;;
39860;SDS011;25529;49.346;20.886;2023-07-13T11:39:16;27.63;;;15.00;;
39860;SDS011;25529;49.346;20.886;2023-07-13T11:41:44;27.75;;;14.68;;
39860;SDS011;25529;49.346;20.886;2023-07-13T11:44:12;26.48;;;13.55;;
39860;SDS011;25529;49.346;20.886;2023-07-13T11:46:45;25.83;;;12.93;;
39860;SDS011;25529;49.346;20.886;2023-07-13T11:49:12;24.35;;;12.88;;
39860;SDS011;25529;49.346;20.886;2023-07-13T11:51:40;24.02;;;11.73;;
39860;SDS011;25529;49.346;20.886;2023-07-13T11:54:13;24.00;;;11.93;;
39860;SDS011;25529;49.346;20.886;2023-07-13T11:56:40;22.92;;;11.23;;
39860;SDS011;25529;49.346;20.886;2023-07-13T11:59:07;23.67;;;11.15;;
39860;SDS011;25529;49.346;20.886;2023-07-13T12:01:35;23.58;;;10.20;;
39860;SDS011;25529;49.346;20.886;2023-07-13T12:04:05;21.77;;;9.98;;
39860;SDS011;25529;49.346;20.886;2023-07-13T12:06:34;22.05;;;10.02;;
39860;SDS011;25529;49.346;20.886;2023-07-13T12:11:29;21.15;;;9.80;;
39860;SDS011;25529;49.346;20.886;2023-07-13T12:13:56;21.25;;;9.60;;
39860;SDS011;25529;49.346;20.886;2023-07-13T12:18:53;20.33;;;8.98;;
39860;SDS011;25529;49.346;20.886;2023-07-13T12:21:19;21.33;;;8.98;;
39860;SDS011;25529;49.346;20.886;2023-07-13T12:23:47;19.52;;;8.65;;
39860;SDS011;25529;49.346;20.886;2023-07-13T12:26:15;19.63;;;7.97;;
39860;SDS011;25529;49.346;20.886;2023-07-13T12:28:48;20.27;;;8.43;;
39860;SDS011;25529;49.346;20.886;2023-07-13T12:31:30;19.52;;;7.50;;
39860;SDS011;25529;49.346;20.886;2023-07-13T12:34:02;18.45;;;7.63;;
39860;SDS011;25529;49.346;20.886;2023-07-13T12:36:35;18.58;;;7.68;;
39860;SDS011;25529;49.346;20.886;2023-07-13T12:39:45;18.25;;;7.40;;
39860;SDS011;25529;49.346;20.886;2023-07-13T12:41:52;17.13;;;7.00;;
39860;SDS011;25529;49.346;20.886;2023-07-13T12:44:24;17.38;;;7.15;;
39860;SDS011;25529;49.346;20.886;2023-07-13T12:47:05;19.50;;;6.90;;
39860;SDS011;25529;49.346;20.886;2023-07-13T12:49:40;17.90;;;6.40;;
39860;SDS011;25529;49.346;20.886;2023-07-13T12:52:13;16.02;;;6.30;;
39860;SDS011;25529;49.346;20.886;2023-07-13T12:54:40;14.20;;;5.80;;
39860;SDS011;25529;49.346;20.886;2023-07-13T12:57:07;16.80;;;6.53;;
39860;SDS011;25529;49.346;20.886;2023-07-13T12:59:40;15.13;;;5.70;;
39860;SDS011;25529;49.346;20.886;2023-07-13T13:02:28;13.40;;;5.50;;
39860;SDS011;25529;49.346;20.886;2023-07-13T13:04:54;12.10;;;5.03;;
39860;SDS011;25529;49.346;20.886;2023-07-13T13:07:24;13.90;;;5.32;;
39860;SDS011;25529;49.346;20.886;2023-07-13T13:09:50;13.52;;;5.50;;
39860;SDS011;25529;49.346;20.886;2023-07-13T13:12:17;13.52;;;5.30;;
39860;SDS011;25529;49.346;20.886;2023-07-13T13:14:46;13.52;;;5.18;;
39860;SDS011;25529;49.346;20.886;2023-07-13T13:17:22;14.82;;;5.40;;
39860;SDS011;25529;49.346;20.886;2023-07-13T13:19:52;11.85;;;5.07;;
39860;SDS011;25529;49.346;20.886;2023-07-13T13:22:25;13.60;;;5.13;;
39860;SDS011;25529;49.346;20.886;2023-07-13T13:24:59;15.77;;;5.63;;
39860;SDS011;25529;49.346;20.886;2023-07-13T13:27:41;15.73;;;5.78;;
39860;SDS011;25529;49.346;20.886;2023-07-13T13:33:10;15.27;;;5.90;;
39860;SDS011;25529;49.346;20.886;2023-07-13T13:35:49;12.70;;;5.07;;
39860;SDS011;25529;49.346;20.886;2023-07-13T13:38:19;15.93;;;5.57;;
39860;SDS011;25529;49.346;20.886;2023-07-13T13:40:51;14.70;;;5.50;;
39860;SDS011;25529;49.346;20.886;2023-07-13T13:43:20;14.43;;;5.15;;
39860;SDS011;25529;49.346;20.886;2023-07-13T13:45:46;13.70;;;5.50;;
39860;SDS011;25529;49.346;20.886;2023-07-13T13:48:19;13.73;;;5.43;;
39860;SDS011;25529;49.346;20.886;2023-07-13T13:50:44;15.50;;;5.88;;
39860;SDS011;25529;49.346;20.886;2023-07-13T13:53:13;15.38;;;5.50;;
39860;SDS011;25529;49.346;20.886;2023-07-13T13:58:24;14.25;;;5.25;;
39860;SDS011;25529;49.346;20.886;2023-07-13T14:00:56;14.00;;;5.25;;
39860;SDS011;25529;49.346;20.886;2023-07-13T14:03:33;15.25;;;5.30;;
39860;SDS011;25529;49.346;20.886;2023-07-13T14:06:04;11.15;;;4.60;;
39860;SDS011;25529;49.346;20.886;2023-07-13T14:08:34;13.80;;;4.75;;
39860;SDS011;25529;49.346;20.886;2023-07-13T14:11:05;10.40;;;4.50;;
39860;SDS011;25529;49.346;20.886;2023-07-13T14:13:41;10.45;;;4.55;;
39860;SDS011;25529;49.346;20.886;2023-07-13T14:16:20;12.80;;;4.60;;
39860;SDS011;25529;49.346;20.886;2023-07-13T14:21:53;11.48;;;4.63;;
39860;SDS011;25529;49.346;20.886;2023-07-13T14:24:21;13.60;;;4.40;;
39860;SDS011;25529;49.346;20.886;2023-07-13T14:26:48;11.25;;;4.80;;
39860;SDS011;25529;49.346;20.886;2023-07-13T14:29:16;17.15;;;5.45;;
39860;SDS011;25529;49.346;20.886;2023-07-13T14:34:53;8.75;;;4.13;;
39860;SDS011;25529;49.346;20.886;2023-07-13T14:37:35;11.90;;;4.65;;
39860;SDS011;25529;49.346;20.886;2023-07-13T14:40:11;8.88;;;4.10;;
39860;SDS011;25529;49.346;20.886;2023-07-13T14:42:40;10.27;;;4.03;;
39860;SDS011;25529;49.346;20.886;2023-07-13T14:45:18;7.55;;;3.88;;
39860;SDS011;25529;49.346;20.886;2023-07-13T14:48:02;17.10;;;5.97;;
39860;SDS011;25529;49.346;20.886;2023-07-13T14:50:31;19.83;;;6.28;;
39860;SDS011;25529;49.346;20.886;2023-07-13T14:52:57;12.80;;;5.10;;
39860;SDS011;25529;49.346;20.886;2023-07-13T14:55:22;11.48;;;4.60;;
39860;SDS011;25529;49.346;20.886;2023-07-13T14:57:51;11.60;;;4.40;;
39860;SDS011;25529;49.346;20.886;2023-07-13T15:00:18;9.98;;;4.22;;
39860;SDS011;25529;49.346;20.886;2023-07-13T15:02:50;9.45;;;4.38;;
39860;SDS011;25529;49.346;20.886;2023-07-13T15:05:24;10.25;;;4.28;;
39860;SDS011;25529;49.346;20.886;2023-07-13T15:07:49;9.57;;;3.92;;
39860;SDS011;25529;49.346;20.886;2023-07-13T15:12:43;6.68;;;3.80;;
39860;SDS011;25529;49.346;20.886;2023-07-13T15:15:09;9.77;;;3.97;;
39860;SDS011;25529;49.346;20.886;2023-07-13T15:17:36;9.57;;;3.88;;
39860;SDS011;25529;49.346;20.886;2023-07-13T15:22:48;9.90;;;3.95;;
39860;SDS011;25529;49.346;20.886;2023-07-13T15:25:18;8.52;;;3.90;;
39860;SDS011;25529;49.346;20.886;2023-07-13T15:27:44;7.75;;;3.80;;
39860;SDS011;25529;49.346;20.886;2023-07-13T15:30:13;7.95;;;3.60;;
39860;SDS011;25529;49.346;20.886;2023-07-13T15:32:39;8.38;;;3.65;;
39860;SDS011;25529;49.346;20.886;2023-07-13T15:35:16;15.23;;;5.40;;
39860;SDS011;25529;49.346;20.886;2023-07-13T15:37:42;16.67;;;5.57;;
39860;SDS011;25529;49.346;20.886;2023-07-13T15:40:11;12.98;;;5.00;;
39860;SDS011;25529;49.346;20.886;2023-07-13T15:42:57;12.60;;;4.72;;
39860;SDS011;25529;49.346;20.886;2023-07-13T15:45:23;9.88;;;4.32;;
39860;SDS011;25529;49.346;20.886;2023-07-13T15:47:52;12.13;;;4.80;;
39860;SDS011;25529;49.346;20.886;2023-07-13T15:50:24;9.77;;;4.18;;
39860;SDS011;25529;49.346;20.886;2023-07-13T15:52:52;13.50;;;4.60;;
39860;SDS011;25529;49.346;20.886;2023-07-13T15:55:21;12.80;;;5.00;;
39860;SDS011;25529;49.346;20.886;2023-07-13T15:57:47;12.95;;;4.93;;
39860;SDS011;25529;49.346;20.886;2023-07-13T16:00:20;8.90;;;4.53;;
39860;SDS011;25529;49.346;20.886;2023-07-13T16:02:49;13.50;;;4.57;;
39860;SDS011;25529;49.346;20.886;2023-07-13T16:05:14;9.93;;;4.25;;
39860;SDS011;25529;49.346;20.886;2023-07-13T16:07:41;9.07;;;3.95;;
39860;SDS011;25529;49.346;20.886;2023-07-13T16:10:07;7.68;;;3.90;;
39860;SDS011;25529;49.346;20.886;2023-07-13T16:12:34;7.82;;;4.00;;
39860;SDS011;25529;49.346;20.886;2023-07-13T16:15:03;8.95;;;4.20;;
39860;SDS011;25529;49.346;20.886;2023-07-13T16:17:28;13.02;;;4.78;;
39860;SDS011;25529;49.346;20.886;2023-07-13T16:19:56;9.85;;;4.38;;
39860;SDS011;25529;49.346;20.886;2023-07-13T16:22:24;8.40;;;4.28;;
39860;SDS011;25529;49.346;20.886;2023-07-13T16:27:43;8.10;;;3.92;;
39860;SDS011;25529;49.346;20.886;2023-07-13T16:30:12;8.82;;;4.43;;
39860;SDS011;25529;49.346;20.886;2023-07-13T16:32:37;7.95;;;4.22;;
39860;SDS011;25529;49.346;20.886;2023-07-13T16:35:03;10.10;;;4.30;;
39860;SDS011;25529;49.346;20.886;2023-07-13T16:37:30;10.07;;;4.43;;
39860;SDS011;25529;49.346;20.886;2023-07-13T16:42:47;10.00;;;4.45;;
39860;SDS011;25529;49.346;20.886;2023-07-13T16:45:21;10.60;;;4.05;;
39860;SDS011;25529;49.346;20.886;2023-07-13T16:47:52;10.48;;;4.55;;
39860;SDS011;25529;49.346;20.886;2023-07-13T16:50:21;12.85;;;4.93;;
39860;SDS011;25529;49.346;20.886;2023-07-13T16:52:47;13.90;;;5.22;;